Time;durP1;ratioP1;P1;durP2;ratioP2;P2;SDS_P1;SDS_P2;PMS_P1;PMS_P2;Temp;Humidity;BMP_temperature;BMP_pressure;BME280_temperature;BME280_humidity;BME280_pressure;Samples;Min_cycle;Max_cycle;Signal;HPM_P1;HPM_P2
2023/09/30 00:00:19;;;;;;;10.57;6.03;;;15.30;99.90;;;;;;4882793;29;19923;-63
2023/09/30 00:02:46;;;;;;;11.43;6.75;;;15.20;99.90;;;;;;4891998;29;20052;-62
2023/09/30 00:05:14;;;;;;;9.35;5.60;;;15.20;99.90;;;;;;4888507;29;20048;-62
2023/09/30 00:07:41;;;;;;;13.93;6.25;;;15.20;99.90;;;;;;4887904;29;20128;-64
2023/09/30 00:10:08;;;;;;;12.57;6.65;;;15.20;99.90;;;;;;4896647;29;20041;-66
2023/09/30 00:12:35;;;;;;;29.23;8.55;;;15.20;99.90;;;;;;4892590;29;20048;-66
2023/09/30 00:15:04;;;;;;;12.07;7.07;;;15.20;99.90;;;;;;4879736;29;20541;-66
2023/09/30 00:17:30;;;;;;;10.23;7.07;;;15.20;99.90;;;;;;4878716;29;20447;-66
2023/09/30 00:19:59;;;;;;;12.07;7.50;;;15.20;99.90;;;;;;4878134;29;20044;-66
2023/09/30 00:22:28;;;;;;;12.75;6.78;;;15.20;99.90;;;;;;4895250;29;20060;-66
2023/09/30 00:24:55;;;;;;;11.15;6.68;;;15.10;99.90;;;;;;4877779;29;20096;-66
2023/09/30 00:27:24;;;;;;;15.38;7.68;;;15.20;99.90;;;;;;4874285;29;20045;-66
2023/09/30 00:29:51;;;;;;;12.85;7.78;;;15.20;99.90;;;;;;4886671;29;20043;-65
2023/09/30 00:32:18;;;;;;;15.70;8.98;;;15.20;99.90;;;;;;4883436;29;20080;-66
2023/09/30 00:34:45;;;;;;;13.63;8.70;;;15.20;99.90;;;;;;4895597;29;20041;-66
2023/09/30 00:37:11;;;;;;;17.55;8.55;;;15.20;99.90;;;;;;4894759;29;20051;-66
2023/09/30 00:39:38;;;;;;;15.20;8.52;;;15.20;99.90;;;;;;4892146;29;20045;-66
2023/09/30 00:42:05;;;;;;;11.98;8.20;;;15.20;99.90;;;;;;4891413;29;20068;-66
2023/09/30 00:44:33;;;;;;;13.65;7.60;;;15.20;99.90;;;;;;4877479;29;20044;-66
2023/09/30 00:47:00;;;;;;;14.43;7.18;;;15.20;99.90;;;;;;4877651;29;20360;-66
2023/09/30 00:49:29;;;;;;;13.35;7.32;;;15.20;99.90;;;;;;4894787;29;20036;-65
2023/09/30 00:51:56;;;;;;;16.83;8.80;;;15.20;99.90;;;;;;4878323;29;20040;-65
2023/09/30 00:54:25;;;;;;;11.35;7.97;;;15.20;99.90;;;;;;4877682;29;20053;-64
2023/09/30 00:56:55;;;;;;;14.52;8.85;;;15.20;99.90;;;;;;4886308;29;20052;-64
2023/09/30 00:59:26;;;;;;;13.68;7.88;;;15.20;99.90;;;;;;4877836;29;20140;-66
2023/09/30 01:01:57;;;;;;;19.65;9.00;;;15.20;99.90;;;;;;4878126;29;20059;-65
2023/09/30 01:04:25;;;;;;;43.65;12.07;;;15.20;99.90;;;;;;4877693;29;20048;-67
2023/09/30 01:06:52;;;;;;;15.98;8.75;;;15.20;99.90;;;;;;4878395;29;20446;-65
2023/09/30 01:09:20;;;;;;;19.75;9.52;;;15.20;99.90;;;;;;4888756;29;20049;-65
2023/09/30 01:11:47;;;;;;;23.13;9.63;;;15.20;99.90;;;;;;4877832;29;20049;-65
2023/09/30 01:14:42;;;;;;;20.02;9.13;;;15.20;99.90;;;;;;4877611;29;20111;-65
2023/09/30 01:17:09;;;;;;;31.88;10.60;;;15.20;99.90;;;;;;4878453;29;20040;-65
2023/09/30 01:19:36;;;;;;;19.92;10.75;;;15.20;99.90;;;;;;4878012;29;20083;-64
2023/09/30 01:22:05;;;;;;;28.55;11.30;;;15.20;99.90;;;;;;4890615;29;20479;-64
2023/09/30 01:24:41;;;;;;;58.58;13.43;;;15.20;99.90;;;;;;4874215;29;20048;-66
2023/09/30 01:27:13;;;;;;;173.13;19.05;;;15.20;99.90;;;;;;4872375;29;20072;-64
2023/09/30 01:29:39;;;;;;;105.35;16.35;;;15.30;99.90;;;;;;4876294;29;20529;-65
2023/09/30 01:32:09;;;;;;;19.75;9.63;;;15.20;99.90;;;;;;4886935;29;20044;-65
2023/09/30 01:34:37;;;;;;;18.90;10.00;;;15.20;99.90;;;;;;4893478;29;20063;-65
2023/09/30 01:37:04;;;;;;;25.15;9.57;;;15.20;99.90;;;;;;4879502;29;20044;-65
2023/09/30 01:39:32;;;;;;;23.40;11.15;;;15.20;99.90;;;;;;4878806;29;20068;-65
2023/09/30 01:41:59;;;;;;;21.20;9.73;;;15.20;99.90;;;;;;4888338;29;20052;-65
2023/09/30 01:44:26;;;;;;;19.95;10.20;;;15.30;99.90;;;;;;4894807;29;20059;-65
2023/09/30 01:46:52;;;;;;;19.77;9.50;;;15.20;99.90;;;;;;4878749;29;20084;-65
2023/09/30 01:49:19;;;;;;;25.63;11.40;;;15.20;99.90;;;;;;4873035;29;20059;-65
2023/09/30 01:51:46;;;;;;;23.83;11.30;;;15.20;99.90;;;;;;4870259;29;20144;-65
2023/09/30 01:54:13;;;;;;;18.50;9.45;;;15.30;99.90;;;;;;4874739;29;20136;-65
2023/09/30 01:56:40;;;;;;;20.90;9.55;;;15.30;99.90;;;;;;4878448;29;20044;-64
2023/09/30 01:59:07;;;;;;;21.83;9.27;;;15.20;99.90;;;;;;4877398;29;20126;-65
2023/09/30 02:01:34;;;;;;;21.17;10.25;;;15.20;99.90;;;;;;4891176;29;20049;-65
2023/09/30 02:04:01;;;;;;;17.10;9.70;;;15.20;99.90;;;;;;4883107;29;20093;-65
2023/09/30 02:06:28;;;;;;;22.90;9.48;;;15.30;99.90;;;;;;4877009;29;20502;-65
2023/09/30 02:08:55;;;;;;;24.15;10.07;;;15.20;99.90;;;;;;4875684;29;20053;-64
2023/09/30 02:11:22;;;;;;;24.08;10.80;;;15.20;99.90;;;;;;4867478;29;20094;-64
2023/09/30 02:13:49;;;;;;;26.23;11.52;;;15.20;99.90;;;;;;4873937;29;20135;-65
2023/09/30 02:16:16;;;;;;;25.60;10.50;;;15.20;99.90;;;;;;4870324;29;20048;-65
2023/09/30 02:18:47;;;;;;;37.28;11.88;;;15.20;99.90;;;;;;4876416;29;20067;-65
2023/09/30 02:21:14;;;;;;;31.00;11.52;;;15.20;99.90;;;;;;4878099;29;20044;-65
2023/09/30 02:23:41;;;;;;;27.85;10.35;;;15.30;99.90;;;;;;4895159;29;20127;-65
2023/09/30 02:26:08;;;;;;;24.67;10.77;;;15.20;99.90;;;;;;4887110;29;20098;-65
2023/09/30 02:28:35;;;;;;;23.58;9.90;;;15.30;99.90;;;;;;4895850;29;20048;-65
2023/09/30 02:31:02;;;;;;;25.52;11.02;;;15.20;99.90;;;;;;4892336;29;20044;-65
2023/09/30 02:33:29;;;;;;;27.58;10.10;;;15.20;99.90;;;;;;4896185;29;20483;-65
2023/09/30 02:35:57;;;;;;;26.15;10.82;;;15.20;99.90;;;;;;4895795;29;20040;-65
2023/09/30 02:38:25;;;;;;;25.58;9.48;;;15.20;99.90;;;;;;4880943;29;20450;-65
2023/09/30 02:40:51;;;;;;;27.40;10.88;;;15.10;99.90;;;;;;4896270;29;20104;-65
2023/09/30 02:43:19;;;;;;;29.92;11.50;;;15.10;99.90;;;;;;4882269;29;20056;-65
2023/09/30 02:45:47;;;;;;;29.48;11.38;;;15.20;99.90;;;;;;4891507;29;20443;-65
2023/09/30 02:48:14;;;;;;;33.13;10.38;;;15.20;99.90;;;;;;4873936;29;20083;-65
2023/09/30 02:50:44;;;;;;;;;;;15.20;99.90;;;;;;4891532;29;20036;-65
2023/09/30 02:53:15;;;;;;;27.33;10.13;;;15.20;99.90;;;;;;4888391;29;19930;-65
2023/09/30 02:55:42;;;;;;;27.63;10.98;;;15.20;99.90;;;;;;4880979;29;20072;-65
2023/09/30 02:58:10;;;;;;;24.90;10.20;;;15.20;99.90;;;;;;4890983;29;20040;-65
2023/09/30 03:00:37;;;;;;;33.17;11.00;;;15.20;99.90;;;;;;4874384;29;20525;-65
2023/09/30 03:03:04;;;;;;;26.25;11.52;;;15.20;99.90;;;;;;4890993;29;20470;-65
2023/09/30 03:05:33;;;;;;;28.60;11.05;;;15.30;99.90;;;;;;4873047;29;20096;-65
2023/09/30 03:08:01;;;;;;;25.17;11.57;;;15.20;99.90;;;;;;4893809;29;20049;-65
2023/09/30 03:10:28;;;;;;;25.67;11.30;;;15.20;99.90;;;;;;4877110;29;20049;-65
2023/09/30 03:13:01;;;;;;;27.77;10.80;;;15.30;99.90;;;;;;4879807;29;20394;-65
2023/09/30 03:15:30;;;;;;;25.33;10.55;;;15.20;99.90;;;;;;4894053;29;20048;-65
2023/09/30 03:17:59;;;;;;;31.02;11.85;;;15.20;99.90;;;;;;4896236;29;20458;-65
2023/09/30 03:20:26;;;;;;;30.73;10.93;;;15.20;99.90;;;;;;4893348;29;20041;-65
2023/09/30 03:22:53;;;;;;;23.50;9.40;;;15.20;99.90;;;;;;4892686;29;20603;-65
2023/09/30 03:25:20;;;;;;;31.05;10.85;;;15.20;99.90;;;;;;4890780;29;20053;-65
2023/09/30 03:27:47;;;;;;;;;;;15.20;99.90;;;;;;4898314;29;20087;-65
2023/09/30 03:30:16;;;;;;;26.77;10.23;;;15.10;99.90;;;;;;4890462;29;19975;-65
2023/09/30 03:32:43;;;;;;;29.83;10.90;;;15.20;99.90;;;;;;4890385;29;20135;-65
2023/09/30 03:35:14;;;;;;;27.08;10.15;;;15.20;99.90;;;;;;4890392;29;20128;-65
2023/09/30 03:37:41;;;;;;;25.55;10.90;;;15.10;99.90;;;;;;4889378;29;20052;-65
2023/09/30 03:40:14;;;;;;;25.95;10.15;;;15.20;99.90;;;;;;4890052;29;20382;-65
2023/09/30 03:42:44;;;;;;;27.95;10.88;;;15.10;99.90;;;;;;4890423;29;20045;-65
2023/09/30 03:45:13;;;;;;;31.77;10.90;;;15.10;99.90;;;;;;4890611;29;20558;-65
2023/09/30 03:47:41;;;;;;;29.95;11.27;;;15.10;99.90;;;;;;4885113;29;20084;-65
2023/09/30 03:50:15;;;;;;;32.83;11.65;;;15.20;99.90;;;;;;4896673;29;20051;-65
2023/09/30 03:52:44;;;;;;;29.33;10.73;;;15.10;99.90;;;;;;4890217;29;20037;-65
2023/09/30 03:55:15;;;;;;;29.27;10.77;;;15.10;99.90;;;;;;4873952;29;20115;-65
2023/09/30 03:57:43;;;;;;;28.27;10.63;;;15.10;99.90;;;;;;4890609;29;20569;-65
2023/09/30 04:00:15;;;;;;;45.55;11.88;;;15.10;99.90;;;;;;4889416;29;20044;-65
2023/09/30 04:02:43;;;;;;;78.35;13.20;;;15.10;99.90;;;;;;4890647;29;20513;-65
2023/09/30 04:05:11;;;;;;;;;;;15.10;99.90;;;;;;4896552;29;20059;-65
2023/09/30 04:07:38;;;;;;;29.08;10.23;;;15.00;99.90;;;;;;4890979;29;20006;-65
2023/09/30 04:10:05;;;;;;;32.60;12.02;;;15.00;99.90;;;;;;4895364;29;20059;-65
2023/09/30 04:12:32;;;;;;;25.20;10.23;;;15.00;99.90;;;;;;4883653;29;20056;-65
2023/09/30 04:15:00;;;;;;;31.25;11.02;;;15.00;99.90;;;;;;4896721;29;20052;-65
2023/09/30 04:17:27;;;;;;;33.75;11.05;;;15.00;99.90;;;;;;4872197;29;20057;-65
2023/09/30 04:19:54;;;;;;;33.75;11.38;;;15.00;99.90;;;;;;4889176;29;20513;-65
2023/09/30 04:22:21;;;;;;;38.22;12.60;;;15.00;99.90;;;;;;4897279;29;20464;-65
2023/09/30 04:24:51;;;;;;;26.08;11.68;;;15.00;99.90;;;;;;4896570;29;20446;-65
2023/09/30 04:27:20;;;;;;;25.55;10.77;;;15.00;99.90;;;;;;4897365;29;20488;-65
2023/09/30 04:29:49;;;;;;;28.15;11.13;;;15.00;99.90;;;;;;4889666;29;20096;-65
2023/09/30 04:32:16;;;;;;;33.75;11.55;;;15.00;99.90;;;;;;4883213;29;20048;-65
2023/09/30 04:34:43;;;;;;;;;;;15.00;99.90;;;;;;4896910;29;20037;-65
2023/09/30 04:37:13;;;;;;;31.33;11.23;;;15.00;99.90;;;;;;4889495;29;19965;-65
2023/09/30 04:39:40;;;;;;;27.55;11.52;;;15.00;99.90;;;;;;4889185;29;20044;-65
2023/09/30 04:42:10;;;;;;;26.63;11.27;;;15.00;99.90;;;;;;4887989;29;20051;-65
2023/09/30 04:44:38;;;;;;;34.20;12.10;;;15.00;99.90;;;;;;4897435;29;20056;-65
2023/09/30 04:47:05;;;;;;;26.65;10.57;;;14.90;99.90;;;;;;4887027;29;20509;-65
2023/09/30 04:49:32;;;;;;;26.58;10.75;;;15.00;99.90;;;;;;4887565;29;20049;-65
2023/09/30 04:51:58;;;;;;;32.72;11.23;;;14.90;99.90;;;;;;4888346;29;20040;-65
2023/09/30 04:54:25;;;;;;;32.42;12.13;;;15.00;99.90;;;;;;4889392;29;20036;-65
2023/09/30 04:56:52;;;;;;;31.40;11.65;;;15.00;99.90;;;;;;4896645;29;20135;-65
2023/09/30 04:59:19;;;;;;;38.78;13.40;;;15.00;99.90;;;;;;4885596;29;20041;-65
2023/09/30 05:01:45;;;;;;;28.00;11.27;;;14.90;99.90;;;;;;4891305;29;20455;-65
2023/09/30 05:04:12;;;;;;;31.98;11.77;;;14.90;99.90;;;;;;4894264;29;20123;-65
2023/09/30 05:06:39;;;;;;;33.97;12.13;;;14.90;99.90;;;;;;4880205;29;20747;-65
2023/09/30 05:09:07;;;;;;;36.03;13.00;;;15.00;99.90;;;;;;4887366;29;20080;-65
2023/09/30 05:11:35;;;;;;;;;;;14.90;99.90;;;;;;4888919;29;20040;-65
2023/09/30 05:14:05;;;;;;;31.83;11.30;;;14.90;99.90;;;;;;4895512;29;19923;-65
2023/09/30 05:16:31;;;;;;;35.83;12.80;;;15.00;99.90;;;;;;4885488;29;20048;-65
2023/09/30 05:18:58;;;;;;;33.28;12.98;;;14.90;99.90;;;;;;4875976;29;20055;-65
2023/09/30 05:21:26;;;;;;;36.47;12.40;;;14.90;99.90;;;;;;4887919;29;20064;-65
2023/09/30 05:23:53;;;;;;;32.28;12.45;;;14.90;99.90;;;;;;4893595;29;20048;-65
2023/09/30 05:26:20;;;;;;;33.65;11.27;;;14.90;99.90;;;;;;4891152;29;20055;-65
2023/09/30 05:28:47;;;;;;;33.65;11.27;;;14.90;99.90;;;;;;4895436;29;20059;-65
2023/09/30 05:31:13;;;;;;;29.92;11.52;;;14.90;99.90;;;;;;4888400;29;20059;-65
2023/09/30 05:33:40;;;;;;;30.90;12.15;;;14.90;99.90;;;;;;4896057;29;20063;-65
2023/09/30 05:36:08;;;;;;;30.88;12.10;;;15.00;99.90;;;;;;4892636;29;20049;-65
2023/09/30 05:38:35;;;;;;;29.95;11.73;;;15.00;99.90;;;;;;4895981;29;20037;-65
2023/09/30 05:41:02;;;;;;;31.05;11.32;;;15.10;99.90;;;;;;4887217;29;20047;-65
2023/09/30 05:43:29;;;;;;;30.02;11.50;;;15.10;99.90;;;;;;4878430;29;20068;-65
2023/09/30 05:45:56;;;;;;;32.95;12.32;;;15.10;99.90;;;;;;4885617;29;20045;-65
2023/09/30 05:48:28;;;;;;;29.73;10.95;;;15.10;99.90;;;;;;4891845;29;20405;-65
2023/09/30 05:50:55;;;;;;;31.67;11.23;;;15.10;99.90;;;;;;4880783;29;20044;-65
2023/09/30 05:53:22;;;;;;;30.63;11.45;;;15.10;99.90;;;;;;4884896;29;20048;-65
2023/09/30 05:55:50;;;;;;;28.05;11.68;;;15.20;99.90;;;;;;4887148;29;20451;-65
2023/09/30 05:58:17;;;;;;;24.63;10.00;;;15.10;99.90;;;;;;4895814;29;20060;-65
2023/09/30 06:00:44;;;;;;;26.85;11.30;;;15.10;99.90;;;;;;4890144;29;20483;-65
2023/09/30 06:03:11;;;;;;;;;;;15.10;99.90;;;;;;4894146;29;20443;-65
2023/09/30 06:05:40;;;;;;;36.70;11.05;;;15.10;99.90;;;;;;4896191;29;19930;-65
2023/09/30 06:08:10;;;;;;;33.33;11.27;;;15.10;99.90;;;;;;4881017;29;20430;-65
2023/09/30 06:10:42;;;;;;;33.33;11.63;;;15.10;99.90;;;;;;4885553;29;20095;-65
2023/09/30 06:13:10;;;;;;;32.00;10.95;;;15.10;99.90;;;;;;4890773;29;20480;-65
2023/09/30 06:15:41;;;;;;;31.17;11.65;;;15.10;99.90;;;;;;4888967;29;20127;-65
2023/09/30 06:18:13;;;;;;;33.33;11.90;;;15.10;99.90;;;;;;4889831;29;20487;-65
2023/09/30 06:20:41;;;;;;;28.95;11.77;;;15.20;99.90;;;;;;4888342;29;20399;-65
2023/09/30 06:23:09;;;;;;;32.22;11.43;;;15.20;99.90;;;;;;4889676;29;20040;-65
2023/09/30 06:25:37;;;;;;;31.08;11.73;;;15.20;99.90;;;;;;4893074;29;20072;-65
2023/09/30 06:28:04;;;;;;;32.35;11.48;;;15.20;99.90;;;;;;4906202;29;20063;-65
2023/09/30 06:30:33;;;;;;;29.65;11.00;;;15.40;99.90;;;;;;4904982;29;20044;-65
2023/09/30 06:33:01;;;;;;;29.63;11.85;;;15.40;99.90;;;;;;4909342;29;20051;-65
2023/09/30 06:35:37;;;;;;;42.38;13.50;;;15.40;99.90;;;;;;4908928;29;20052;-65
2023/09/30 06:38:06;;;;;;;31.55;11.75;;;15.30;99.90;;;;;;4907118;29;20129;-65
2023/09/30 06:40:34;;;;;;;28.38;11.05;;;15.30;99.90;;;;;;4905585;29;20040;-65
2023/09/30 06:43:05;;;;;;;35.08;11.98;;;15.40;99.90;;;;;;4908719;29;20394;-65
2023/09/30 06:45:32;;;;;;;;;;;15.40;99.90;;;;;;4906071;29;20115;-65
2023/09/30 06:47:59;;;;;;;31.25;11.52;;;15.50;99.90;;;;;;4906531;29;20015;-65
2023/09/30 06:50:26;;;;;;;30.40;10.93;;;15.50;99.90;;;;;;4910952;29;20048;-65
2023/09/30 06:52:53;;;;;;;28.45;11.73;;;15.60;99.90;;;;;;4908252;29;20075;-65
2023/09/30 06:55:20;;;;;;;26.58;11.93;;;15.60;99.90;;;;;;4909837;29;20044;-65
2023/09/30 06:57:47;;;;;;;28.30;11.25;;;15.60;99.90;;;;;;4906769;29;20447;-65
2023/09/30 07:00:14;;;;;;;26.13;10.50;;;15.60;99.90;;;;;;4911283;29;20509;-65
2023/09/30 07:02:42;;;;;;;27.20;10.65;;;15.70;99.90;;;;;;4908828;29;20075;-65
2023/09/30 07:05:11;;;;;;;26.98;11.10;;;15.70;99.90;;;;;;4909024;29;20044;-65
2023/09/30 07:07:39;;;;;;;30.10;11.15;;;15.80;99.90;;;;;;4902077;29;20036;-65
2023/09/30 07:10:06;;;;;;;31.05;11.75;;;15.80;99.90;;;;;;4910122;29;20529;-65
2023/09/30 07:12:35;;;;;;;29.60;11.63;;;15.90;99.90;;;;;;4910094;29;20123;-65
2023/09/30 07:15:07;;;;;;;25.55;10.52;;;16.00;99.90;;;;;;4907927;29;20053;-65
2023/09/30 07:17:34;;;;;;;29.30;11.02;;;16.20;99.90;;;;;;4906165;29;20052;-65
2023/09/30 07:20:05;;;;;;;26.10;10.77;;;16.30;99.90;;;;;;4903874;29;20402;-65
2023/09/30 07:22:33;;;;;;;30.80;11.90;;;16.30;99.90;;;;;;4898932;29;20459;-65
2023/09/30 07:25:17;;;;;;;28.85;10.75;;;16.30;99.90;;;;;;4900982;29;20036;-65
2023/09/30 07:27:44;;;;;;;25.50;10.70;;;16.40;99.90;;;;;;4908821;29;20036;-64
2023/09/30 07:30:14;;;;;;;29.40;11.15;;;16.30;99.90;;;;;;4906388;29;20131;-65
2023/09/30 07:32:43;;;;;;;30.73;12.88;;;16.30;99.90;;;;;;4909600;29;20072;-65
2023/09/30 07:35:15;;;;;;;27.67;10.65;;;16.30;99.90;;;;;;4903147;29;20068;-65
2023/09/30 07:37:42;;;;;;;27.63;10.80;;;16.30;99.90;;;;;;4899669;29;20116;-65
2023/09/30 07:40:10;;;;;;;29.42;12.50;;;16.30;99.90;;;;;;4897973;29;20157;-65
2023/09/30 07:42:37;;;;;;;33.65;12.00;;;16.30;99.90;;;;;;4900550;29;20438;-65
2023/09/30 07:45:04;;;;;;;;;;;16.20;99.90;;;;;;4904758;29;20493;-65
2023/09/30 07:47:33;;;;;;;28.98;11.82;;;16.30;99.90;;;;;;4896351;29;20317;-65
2023/09/30 07:50:09;;;;;;;29.73;10.98;;;16.30;99.90;;;;;;4900187;29;20482;-65
2023/09/30 07:52:37;;;;;;;26.30;11.20;;;16.30;99.90;;;;;;4897607;29;20040;-65
2023/09/30 07:55:04;;;;;;;29.90;11.60;;;16.30;99.90;;;;;;4903228;29;20080;-65
2023/09/30 07:57:33;;;;;;;26.40;11.63;;;16.30;99.90;;;;;;4900809;29;20098;-65
2023/09/30 08:00:00;;;;;;;34.72;13.13;;;16.30;99.90;;;;;;4891186;29;20478;-65
2023/09/30 08:02:36;;;;;;;32.72;12.48;;;16.40;99.90;;;;;;4896151;29;20051;-65
2023/09/30 08:05:05;;;;;;;34.28;13.07;;;16.40;99.90;;;;;;4873906;29;20068;-65
2023/09/30 08:07:33;;;;;;;28.92;11.98;;;16.50;99.90;;;;;;4880731;29;20045;-65
2023/09/30 08:10:04;;;;;;;30.50;11.95;;;16.50;99.90;;;;;;4879414;29;20049;-65
2023/09/30 08:12:31;;;;;;;29.25;11.65;;;16.50;99.90;;;;;;4889567;29;20040;-65
2023/09/30 08:14:58;;;;;;;;;;;16.50;99.90;;;;;;4890059;29;20115;-65
2023/09/30 08:17:25;;;;;;;29.92;12.20;;;16.50;99.90;;;;;;4894109;29;20325;-65
2023/09/30 08:19:52;;;;;;;28.10;12.32;;;16.50;99.90;;;;;;4892013;29;20097;-65
2023/09/30 08:22:19;;;;;;;28.38;11.60;;;16.50;99.90;;;;;;4896461;29;20056;-65
2023/09/30 08:24:46;;;;;;;29.38;11.40;;;16.60;99.90;;;;;;4894398;29;20051;-65
2023/09/30 08:27:13;;;;;;;29.85;10.98;;;16.60;99.90;;;;;;4897130;29;20048;-65
2023/09/30 08:29:40;;;;;;;32.25;12.02;;;16.70;99.90;;;;;;4891819;29;20554;-65
2023/09/30 08:32:07;;;;;;;32.80;12.15;;;16.80;99.90;;;;;;4897339;29;20044;-65
2023/09/30 08:34:34;;;;;;;28.67;11.38;;;16.90;99.90;;;;;;4888745;29;20055;-65
2023/09/30 08:37:01;;;;;;;27.98;12.13;;;16.90;99.90;;;;;;4894681;29;20059;-65
2023/09/30 08:39:28;;;;;;;30.58;12.15;;;17.00;99.90;;;;;;4886887;29;20115;-65
2023/09/30 08:41:56;;;;;;;28.35;12.10;;;17.10;99.90;;;;;;4897410;29;20494;-65
2023/09/30 08:44:24;;;;;;;30.65;12.40;;;17.20;99.90;;;;;;4896712;29;20052;-65
2023/09/30 08:46:52;;;;;;;36.58;12.50;;;17.20;99.90;;;;;;4893672;29;20639;-65
2023/09/30 08:49:21;;;;;;;26.10;11.05;;;17.30;99.90;;;;;;4892927;29;20092;-65
2023/09/30 08:51:49;;;;;;;32.10;11.65;;;17.50;99.90;;;;;;4894104;29;20128;-65
2023/09/30 08:54:16;;;;;;;34.05;12.45;;;17.50;99.90;;;;;;4893547;29;20053;-65
2023/09/30 08:56:47;;;;;;;32.10;11.82;;;17.50;99.90;;;;;;4896809;29;20049;-65
2023/09/30 08:59:14;;;;;;;25.67;11.20;;;17.50;99.90;;;;;;4895739;29;20130;-65
2023/09/30 09:01:41;;;;;;;27.58;11.38;;;17.70;99.90;;;;;;4891780;29;20049;-65
2023/09/30 09:04:08;;;;;;;29.67;11.93;;;17.80;99.90;;;;;;4896109;29;20242;-65
2023/09/30 09:06:35;;;;;;;31.42;11.90;;;18.00;99.90;;;;;;4887984;29;20048;-65
2023/09/30 09:09:16;;;;;;;28.35;10.82;;;18.10;99.90;;;;;;4889376;29;20048;-65
2023/09/30 09:11:46;;;;;;;27.13;11.50;;;18.10;99.90;;;;;;4887708;29;20096;-65
2023/09/30 09:14:14;;;;;;;27.60;11.27;;;18.20;99.90;;;;;;4888304;29;20054;-64
2023/09/30 09:16:55;;;;;;;29.73;10.85;;;18.30;99.90;;;;;;4887476;29;20047;-65
2023/09/30 09:19:23;;;;;;;27.85;10.60;;;18.50;99.90;;;;;;4895027;29;20072;-65
2023/09/30 09:22:01;;;;;;;27.13;11.10;;;18.60;99.90;;;;;;4885043;29;20037;-65
2023/09/30 09:24:27;;;;;;;26.98;11.27;;;18.70;99.90;;;;;;4885527;29;20093;-65
2023/09/30 09:27:24;;;;;;;30.33;11.85;;;18.70;99.90;;;;;;4889931;29;20490;-65
2023/09/30 09:29:51;;;;;;;30.15;12.00;;;18.60;99.90;;;;;;4871414;29;20056;-65
2023/09/30 09:32:18;;;;;;;31.70;11.68;;;18.60;99.90;;;;;;4896226;29;20048;-65
2023/09/30 09:34:59;;;;;;;33.33;11.90;;;18.50;99.90;;;;;;4891815;29;20041;-65
2023/09/30 09:37:26;;;;;;;27.08;10.80;;;18.60;99.90;;;;;;4886432;29;20040;-65
2023/09/30 09:39:55;;;;;;;30.00;11.48;;;18.80;99.90;;;;;;4885697;29;20160;-65
2023/09/30 09:42:30;;;;;;;32.00;12.93;;;18.90;99.90;;;;;;4895785;29;20048;-65
2023/09/30 09:45:03;;;;;;;31.75;12.23;;;18.80;99.90;;;;;;4887785;29;20428;-65
2023/09/30 09:47:32;;;;;;;36.60;11.90;;;18.80;99.90;;;;;;4887065;29;20085;-65
2023/09/30 09:50:02;;;;;;;32.78;12.95;;;18.80;99.90;;;;;;4891186;29;20053;-65
2023/09/30 09:52:29;;;;;;;33.92;12.65;;;18.70;99.90;;;;;;4895647;29;20049;-65
2023/09/30 09:54:58;;;;;;;34.60;12.57;;;18.70;99.90;;;;;;4890597;29;20048;-65
2023/09/30 09:57:27;;;;;;;28.67;11.85;;;18.60;99.90;;;;;;4885150;29;20040;-65
2023/09/30 09:59:55;;;;;;;30.08;10.65;;;18.40;99.90;;;;;;4890323;29;20049;-65
2023/09/30 10:02:27;;;;;;;25.52;11.15;;;18.20;99.90;;;;;;4895810;29;20064;-65
2023/09/30 10:04:56;;;;;;;30.20;11.55;;;18.20;99.90;;;;;;4891173;29;20117;-65
2023/09/30 10:07:30;;;;;;;29.27;10.75;;;18.20;99.90;;;;;;4891615;29;20048;-65
2023/09/30 10:10:00;;;;;;;34.90;12.20;;;18.40;99.90;;;;;;4895525;29;20574;-65
2023/09/30 10:12:27;;;;;;;34.25;12.50;;;18.80;99.90;;;;;;4887467;29;20132;-65
2023/09/30 10:14:54;;;;;;;25.25;11.23;;;19.10;99.90;;;;;;4887870;29;20047;-65
2023/09/30 10:17:59;;;;;;;31.48;11.43;;;19.10;99.90;;;;;;4887444;29;20504;-65
2023/09/30 10:20:30;;;;;;;26.30;10.73;;;19.00;99.90;;;;;;4884645;29;20041;-65
2023/09/30 10:23:19;;;;;;;29.75;11.63;;;18.90;99.90;;;;;;4884785;29;20487;-65
2023/09/30 10:25:47;;;;;;;26.65;11.48;;;18.90;99.90;;;;;;4887463;29;20068;-65
2023/09/30 10:28:34;;;;;;;29.73;11.52;;;18.80;99.90;;;;;;4895414;29;20391;-65
2023/09/30 10:31:21;;;;;;;29.58;11.70;;;18.80;99.90;;;;;;4887945;29;20446;-65
2023/09/30 10:34:00;;;;;;;28.90;11.43;;;18.80;99.90;;;;;;4892459;29;20044;-65
2023/09/30 10:36:34;;;;;;;34.50;11.52;;;18.80;99.90;;;;;;4894419;29;20454;-65
2023/09/30 10:39:02;;;;;;;28.02;11.27;;;18.80;99.90;;;;;;4883475;29;20037;-65
2023/09/30 10:41:41;;;;;;;32.50;11.63;;;18.80;99.90;;;;;;4884907;29;20112;-65
2023/09/30 10:44:27;;;;;;;27.33;10.40;;;19.00;99.90;;;;;;4895494;29;20044;-65
2023/09/30 10:46:56;;;;;;;32.25;11.13;;;19.40;99.90;;;;;;4891150;29;20509;-65
2023/09/30 10:49:23;;;;;;;28.20;11.13;;;19.50;99.90;;;;;;4884413;29;20061;-65
2023/09/30 10:51:59;;;;;;;32.33;11.10;;;19.50;99.90;;;;;;4887504;29;20058;-65
2023/09/30 10:54:36;;;;;;;30.70;10.43;;;19.80;99.90;;;;;;4887431;29;20057;-65
2023/09/30 10:57:03;;;;;;;28.98;10.55;;;20.10;99.90;;;;;;4890290;29;20755;-65
2023/09/30 10:59:32;;;;;;;30.05;10.55;;;20.30;99.90;;;;;;4885184;29;20083;-65
2023/09/30 11:01:58;;;;;;;32.45;10.85;;;20.30;99.90;;;;;;4891166;29;20441;-65
2023/09/30 11:04:28;;;;;;;;;;;20.00;99.90;;;;;;4891502;29;20154;-65
2023/09/30 11:06:55;;;;;;;28.00;10.02;;;19.90;99.90;;;;;;4894156;29;20378;-65
2023/09/30 11:09:22;;;;;;;25.73;10.25;;;19.80;99.90;;;;;;4887441;29;20067;-65
2023/09/30 11:11:52;;;;;;;28.27;9.77;;;19.70;99.90;;;;;;4889996;29;20127;-65
2023/09/30 11:14:20;;;;;;;27.42;10.13;;;19.40;99.90;;;;;;4897922;29;20055;-65
2023/09/30 11:16:48;;;;;;;30.67;11.00;;;19.40;99.90;;;;;;4888746;29;20140;-65
2023/09/30 11:19:16;;;;;;;26.80;10.20;;;19.50;99.90;;;;;;4890414;29;20128;-65
2023/09/30 11:21:43;;;;;;;27.27;10.25;;;19.50;99.90;;;;;;4883599;29;20044;-65
2023/09/30 11:24:11;;;;;;;27.40;9.98;;;19.60;99.90;;;;;;4898363;29;20054;-65
2023/09/30 11:26:41;;;;;;;26.45;10.05;;;19.60;99.90;;;;;;4889737;29;20045;-65
2023/09/30 11:29:11;;;;;;;31.73;9.93;;;19.80;99.90;;;;;;4888755;29;20048;-65
2023/09/30 11:31:39;;;;;;;25.50;9.85;;;19.90;99.90;;;;;;4898054;29;20135;-65
2023/09/30 11:34:07;;;;;;;29.25;11.05;;;19.80;99.90;;;;;;4889989;29;20052;-65
2023/09/30 11:36:35;;;;;;;29.88;10.48;;;19.60;99.90;;;;;;4888922;29;20131;-65
2023/09/30 11:39:03;;;;;;;30.38;10.52;;;19.40;99.90;;;;;;4886171;29;20104;-65
2023/09/30 11:41:38;;;;;;;25.50;10.18;;;19.20;99.90;;;;;;4890106;29;20040;-65
2023/09/30 11:44:11;;;;;;;21.98;8.63;;;19.10;99.90;;;;;;4890466;29;20068;-65
2023/09/30 11:46:51;;;;;;;34.88;11.10;;;19.00;99.90;;;;;;4885958;29;20044;-65
2023/09/30 11:49:38;;;;;;;26.35;9.88;;;19.00;99.90;;;;;;4888311;29;20048;-65
2023/09/30 11:52:07;;;;;;;25.70;9.07;;;18.90;99.90;;;;;;4890987;29;20045;-65
2023/09/30 11:54:42;;;;;;;23.65;9.60;;;18.90;99.90;;;;;;4895387;29;20059;-65
2023/09/30 11:57:14;;;;;;;27.08;9.77;;;19.00;99.90;;;;;;4890865;29;20117;-65
2023/09/30 11:59:44;;;;;;;25.55;9.52;;;19.30;99.90;;;;;;4890954;29;20051;-65
2023/09/30 12:02:11;;;;;;;24.90;9.45;;;19.60;99.90;;;;;;4892655;29;20056;-65
2023/09/30 12:04:42;;;;;;;26.90;9.90;;;19.80;99.90;;;;;;4887810;29;20559;-65
2023/09/30 12:07:09;;;;;;;25.52;9.90;;;19.70;99.90;;;;;;4885431;29;20045;-65
2023/09/30 12:09:39;;;;;;;25.48;9.73;;;19.60;99.90;;;;;;4892850;29;20052;-65
2023/09/30 12:12:10;;;;;;;25.65;9.80;;;19.50;99.90;;;;;;4893035;29;20053;-65
2023/09/30 12:14:39;;;;;;;24.08;9.63;;;19.40;99.90;;;;;;4893639;29;20490;-65
2023/09/30 12:17:10;;;;;;;26.42;9.68;;;19.30;99.90;;;;;;4897263;29;20053;-65
2023/09/30 12:19:37;;;;;;;24.60;9.82;;;19.30;99.90;;;;;;4887666;29;20052;-65
2023/09/30 12:22:04;;;;;;;22.90;8.77;;;19.30;99.90;;;;;;4890467;29;20502;-65
2023/09/30 12:24:31;;;;;;;24.98;9.27;;;19.40;99.90;;;;;;4895625;29;20052;-65
2023/09/30 12:26:58;;;;;;;23.92;9.73;;;19.60;99.90;;;;;;4896517;29;20044;-65
2023/09/30 12:29:25;;;;;;;23.40;9.32;;;19.70;99.90;;;;;;4888972;29;20427;-65
2023/09/30 12:31:52;;;;;;;23.95;9.45;;;19.70;99.90;;;;;;4896930;29;20075;-65
2023/09/30 12:34:26;;;;;;;27.55;10.15;;;19.70;99.90;;;;;;4890230;29;20515;-65
2023/09/30 12:36:55;;;;;;;25.40;9.88;;;19.60;99.90;;;;;;4895768;29;20083;-65
2023/09/30 12:39:24;;;;;;;30.05;9.63;;;19.40;99.90;;;;;;4884001;29;20049;-65
2023/09/30 12:41:52;;;;;;;24.70;9.50;;;19.30;99.90;;;;;;4893601;29;20127;-65